Latest Weather Observations for Melville Water

IDW60901

Issued at 11:41 pm WST Wednesday 19 December 2018 (issued every 10 minutes, with the page automatically refreshed every 10 minutes)

About weather observations | Map of Perth area stations | Latest observations for Perth area | Other Formats
Station Details ID: 009091 Name: INNER DOLPHIN PYLON Lat: -31.99 Lon: 115.83 Height: 0.0 m
Data from the previous 72 hours. | See also: Recent months at Melville Water
Date/Time
WST
Temp
°C
App
Temp
°C
Dew
Point
°C
Rel
Hum
%
Delta-T
°C
Wind Press
QNH
hPa
Press
MSL
hPa
Rain since
9am
mm
Dir  Spd
km/h
Gust
km/h
Spd
kts
Gust
kts
19/11:30pm - - - - - S 17 20 9 11 - - -
19/11:00pm - - - - - S 13 19 7 10 - - -
19/10:30pm - - - - - S 13 19 7 10 - - -
19/10:00pm - - - - - S 17 24 9 13 - - -
19/09:30pm - - - - - SSW 19 28 10 15 - - -
19/09:00pm - - - - - SSW 15 19 8 10 - - -
19/08:30pm - - - - - SW 15 19 8 10 - - -
19/08:00pm - - - - - SSW 19 24 10 13 - - -
19/07:30pm - - - - - SSW 24 30 13 16 - - -
19/07:00pm - - - - - SSW 24 33 13 18 - - -
19/06:30pm - - - - - SSW 28 35 15 19 - - -
19/06:00pm - - - - - SSW 32 39 17 21 - - -
19/05:30pm - - - - - SSW 32 41 17 22 - - -
19/05:00pm - - - - - SSW 33 41 18 22 - - -
19/04:30pm - - - - - SSW 35 43 19 23 - - -
19/04:00pm - - - - - SSW 35 43 19 23 - - -
19/03:30pm - - - - - SW 35 43 19 23 - - -
19/03:00pm - - - - - SW 35 41 19 22 - - -
19/02:30pm - - - - - SW 33 37 18 20 - - -
19/02:00pm - - - - - SW 30 35 16 19 - - -
19/01:30pm - - - - - SW 28 35 15 19 - - -
19/01:00pm - - - - - SW 26 32 14 17 - - -
19/12:30pm - - - - - SW 28 32 15 17 - - -
19/12:00pm - - - - - SW 24 30 13 16 - - -
19/11:30am - - - - - SW 24 28 13 15 - - -
19/11:00am - - - - - SW 7 11 4 6 - - -
19/10:30am - - - - - W 6 7 3 4 - - -
19/10:00am - - - - - N 4 6 2 3 - - -
19/09:30am - - - - - ESE 9 20 5 11 - - -
19/09:00am - - - - - ESE 11 20 6 11 - - -
19/08:30am - - - - - ESE 17 22 9 12 - - -
19/08:00am - - - - - ESE 20 24 11 13 - - -
19/07:30am - - - - - ESE 17 24 9 13 - - -
19/07:00am - - - - - ESE 17 24 9 13 - - -
19/06:30am - - - - - E 17 22 9 12 - - -
19/06:00am - - - - - E 20 30 11 16 - - -
19/05:30am - - - - - E 20 28 11 15 - - -
19/05:00am - - - - - ESE 20 26 11 14 - - -
19/04:30am - - - - - E 20 26 11 14 - - -
19/04:00am - - - - - ESE 20 26 11 14 - - -
19/03:30am - - - - - E 24 30 13 16 - - -
19/03:00am - - - - - ESE 20 26 11 14 - - -
19/02:30am - - - - - ESE 24 32 13 17 - - -
19/02:00am - - - - - - - - - - - - -
 
Date/Time
WST
Temp
°C
App
Temp
°C
Dew
Point
°C
Rel
Hum
%
Delta-T
°C
Wind Press
QNH
hPa
Press
MSL
hPa
Rain since
9am
mm
Dir  Spd
km/h
Gust
km/h
Spd
kts
Gust
kts
18/11:30pm - - - - - - - - - - - - -
18/11:00pm - - - - - S 13 17 7 9 - - -
18/10:30pm - - - - - S 9 11 5 6 - - -
18/10:00pm - - - - - S 13 19 7 10 - - -
18/09:30pm - - - - - S 17 24 9 13 - - -
18/09:00pm - - - - - S 17 22 9 12 - - -
18/08:30pm - - - - - SSW 20 26 11 14 - - -
18/08:00pm - - - - - SSW 22 30 12 16 - - -
18/07:30pm - - - - - SSW 24 32 13 17 - - -
18/07:00pm - - - - - SSW 26 35 14 19 - - -
18/06:30pm - - - - - SSW 30 37 16 20 - - -
18/06:00pm - - - - - SSW 32 39 17 21 - - -
18/05:30pm - - - - - SSW 32 39 17 21 - - -
18/05:00pm - - - - - SSW 33 39 18 21 - - -
18/04:30pm - - - - - SSW 32 39 17 21 - - -
18/04:00pm - - - - - SW 33 39 18 21 - - -
18/03:30pm - - - - - SW 30 37 16 20 - - -
18/03:00pm - - - - - SW 30 35 16 19 - - -
18/02:30pm - - - - - SW 30 35 16 19 - - -
18/02:00pm - - - - - SW 30 35 16 19 - - -
18/01:30pm - - - - - SW 28 37 15 20 - - -
18/01:00pm - - - - - SW 30 35 16 19 - - -
18/12:30pm - - - - - SW 26 33 14 18 - - -
18/12:00pm - - - - - SW 26 33 14 18 - - -
18/11:30am - - - - - WSW 24 32 13 17 - - -
18/11:00am - - - - - SW 22 26 12 14 - - -
18/10:30am - - - - - WSW 6 11 3 6 - - -
18/10:00am - - - - - SSE 4 11 2 6 - - -
18/09:30am - - - - - S 7 17 4 9 - - -
18/09:00am - - - - - SE 9 15 5 8 - - -
18/08:30am - - - - - SE 9 15 5 8 - - -
18/08:00am - - - - - SE 13 19 7 10 - - -
18/07:30am - - - - - SE 15 22 8 12 - - -
18/07:00am - - - - - SE 11 17 6 9 - - -
18/06:30am - - - - - SE 15 19 8 10 - - -
18/06:00am - - - - - SSE 11 15 6 8 - - -
18/05:30am - - - - - SSE 13 17 7 9 - - -
18/05:00am - - - - - S 15 19 8 10 - - -
18/04:30am - - - - - SSE 17 24 9 13 - - -
18/04:00am - - - - - SE 17 24 9 13 - - -
18/03:30am - - - - - SE 19 24 10 13 - - -
18/03:00am - - - - - SE 20 26 11 14 - - -
18/02:30am - - - - - ESE 20 26 11 14 - - -
18/02:00am - - - - - SE 20 30 11 16 - - -
18/01:30am - - - - - SE 20 26 11 14 - - -
18/01:00am - - - - - ESE 19 24 10 13 - - -
18/12:30am - - - - - SE 24 28 13 15 - - -
18/12:00am - - - - - SE 24 30 13 16 - - -
 
Date/Time
WST
Temp
°C
App
Temp
°C
Dew
Point
°C
Rel
Hum
%
Delta-T
°C
Wind Press
QNH
hPa
Press
MSL
hPa
Rain since
9am
mm
Dir  Spd
km/h
Gust
km/h
Spd
kts
Gust
kts
17/11:30pm - - - - - SE 24 30 13 16 - - -
17/11:00pm - - - - - SE 28 39 15 21 - - -
17/10:30pm - - - - - SSE 20 28 11 15 - - -
17/10:00pm - - - - - SSE 17 24 9 13 - - -
17/09:30pm - - - - - S 22 26 12 14 - - -
17/09:00pm - - - - - S 20 26 11 14 - - -
17/08:30pm - - - - - SSW 26 30 14 16 - - -
17/08:00pm - - - - - SSW 33 41 18 22 - - -
17/07:30pm - - - - - SSW 35 44 19 24 - - -
17/07:00pm - - - - - SSW 41 46 22 25 - - -
17/06:30pm - - - - - SSW 41 54 22 29 - - -
17/06:00pm - - - - - SSW 43 52 23 28 - - -
17/05:30pm - - - - - SSW 43 56 23 30 - - -
17/05:00pm - - - - - SSW 43 52 23 28 - - -
17/04:30pm - - - - - SSW 41 50 22 27 - - -
17/04:00pm - - - - - SSW 41 50 22 27 - - -
17/03:30pm - - - - - SSW 39 48 21 26 - - -
17/03:00pm - - - - - SSW 41 52 22 28 - - -
17/02:30pm - - - - - SW 39 50 21 27 - - -
17/02:00pm - - - - - SSW 39 48 21 26 - - -
17/01:30pm - - - - - SW 43 50 23 27 - - -
17/01:00pm - - - - - SW 41 46 22 25 - - -
17/12:30pm - - - - - SW 37 44 20 24 - - -
17/12:00pm - - - - - SW 30 37 16 20 - - -
17/11:30am - - - - - S 20 30 11 16 - - -
17/11:00am - - - - - SSW 20 28 11 15 - - -
17/10:30am - - - - - S 22 33 12 18 - - -
17/10:00am - - - - - S 20 41 11 22 - - -
17/09:30am - - - - - SSE 20 32 11 17 - - -
17/09:00am - - - - - S 15 22 8 12 - - -
17/08:30am - - - - - S 17 24 9 13 - - -
17/08:00am - - - - - SSE 17 26 9 14 - - -
17/07:30am - - - - - SSE 19 28 10 15 - - -
17/07:00am - - - - - S 19 24 10 13 - - -
17/06:30am - - - - - S 20 26 11 14 - - -
17/06:00am - - - - - S 20 24 11 13 - - -
17/05:30am - - - - - SSE 17 22 9 12 - - -
17/05:00am - - - - - S 17 22 9 12 - - -
17/04:30am - - - - - S 19 24 10 13 - - -
17/04:00am - - - - - S 19 22 10 12 - - -
17/03:30am - - - - - S 19 30 10 16 - - -
17/03:00am - - - - - SSE 20 28 11 15 - - -
17/02:30am - - - - - SE 28 37 15 20 - - -
17/02:00am - - - - - SSE 24 32 13 17 - - -
17/01:30am - - - - - SSE 20 28 11 15 - - -
17/01:00am - - - - - SSE 22 32 12 17 - - -
17/12:30am - - - - - SSE 33 41 18 22 - - -
17/12:00am - - - - - SSE 28 39 15 21 - - -

Latest Capital City Observations: Canberra | Sydney | Melbourne | Brisbane | Adelaide | Perth | Hobart | Darwin

Other Formats:

Comma delimited format used in spreadsheet applications
http://www.bom.gov.au/fwo/IDW60901/IDW60901.95620.axf

JavaScript Object Notation format (JSON) in row-major order
http://www.bom.gov.au/fwo/IDW60901/IDW60901.95620.json